createdAt,value
2022-09-14T00:01:23.688Z,15.86
2022-09-14T00:03:52.171Z,15.62
2022-09-14T00:06:18.694Z,15.63
2022-09-14T00:08:45.286Z,16.17
2022-09-14T00:11:13.938Z,16.04
2022-09-14T00:13:42.396Z,15.95
2022-09-14T00:16:14.500Z,15.99
2022-09-14T00:18:41.652Z,16.05
2022-09-14T00:21:10.452Z,16.16
2022-09-14T00:23:38.321Z,15.75
2022-09-14T00:26:11.389Z,15.61
2022-09-14T00:28:47.879Z,16.06
2022-09-14T00:31:14.428Z,16.04
2022-09-14T00:33:44.906Z,16.03
2022-09-14T00:36:14.308Z,15.80
2022-09-14T00:38:41.860Z,15.76
2022-09-14T00:41:13.204Z,15.77
2022-09-14T00:43:58.101Z,15.63
2022-09-14T00:46:28.558Z,15.65
2022-09-14T00:49:51.911Z,15.73
2022-09-14T00:55:39.911Z,15.78
2022-09-14T00:58:17.742Z,15.81
2022-09-14T01:01:10.523Z,15.70
2022-09-14T01:03:44.878Z,15.88
2022-09-14T01:09:51.707Z,15.50
2022-09-14T01:12:50.600Z,15.30
2022-09-14T01:19:04.461Z,15.48
2022-09-14T01:21:33.706Z,15.50
2022-09-14T01:24:48.263Z,15.58
2022-09-14T01:27:24.035Z,15.67
2022-09-14T01:30:10.710Z,15.48
2022-09-14T01:32:45.413Z,15.66
2022-09-14T01:35:18.343Z,15.68
2022-09-14T01:37:44.786Z,15.70
2022-09-14T01:40:20.439Z,15.88
2022-09-14T01:42:52.135Z,15.65
2022-09-14T01:45:21.154Z,15.63
2022-09-14T01:47:52.273Z,15.76
2022-09-14T01:50:38.524Z,15.36
2022-09-14T01:53:15.893Z,15.24
2022-09-14T01:55:51.635Z,15.31
2022-09-14T01:58:25.762Z,15.20
2022-09-14T02:00:54.073Z,14.92
2022-09-14T02:03:25.837Z,14.90
2022-09-14T02:05:58.671Z,14.82
2022-09-14T02:08:26.938Z,14.94
2022-09-14T02:10:53.536Z,15.09
2022-09-14T02:13:20.045Z,14.99
2022-09-14T02:15:46.768Z,14.93
2022-09-14T02:18:13.461Z,14.89
2022-09-14T02:20:45.081Z,14.92
2022-09-14T02:23:11.780Z,14.96
2022-09-14T02:25:41.068Z,14.85
2022-09-14T02:28:08.070Z,14.75
2022-09-14T02:30:48.571Z,14.64
2022-09-14T02:33:23.647Z,14.65
2022-09-14T02:35:54.615Z,14.64
2022-09-14T02:38:28.195Z,14.84
2022-09-14T02:40:59.131Z,15.02
2022-09-14T02:43:41.890Z,15.01
2022-09-14T02:46:20.279Z,15.00
2022-09-14T02:48:52.109Z,15.07
2022-09-14T02:51:34.519Z,14.72
2022-09-14T02:54:07.296Z,14.88
2022-09-14T02:56:35.427Z,14.79
2022-09-14T02:59:01.964Z,14.80
2022-09-14T03:01:28.689Z,14.68
2022-09-14T03:03:55.237Z,14.69
2022-09-14T03:06:22.143Z,14.71
2022-09-14T03:08:49.173Z,14.65
2022-09-14T03:11:15.695Z,14.81
2022-09-14T03:13:42.348Z,14.78
2022-09-14T03:16:14.316Z,14.95
2022-09-14T03:18:41.520Z,14.98
2022-09-14T03:21:11.519Z,15.21
2022-09-14T03:23:39.070Z,15.28
2022-09-14T03:26:10.420Z,15.51
2022-09-14T03:28:37.365Z,15.29
2022-09-14T03:31:05.364Z,15.38
2022-09-14T03:33:32.173Z,15.39
2022-09-14T03:35:58.670Z,15.43
2022-09-14T03:38:27.967Z,15.34
2022-09-14T03:40:54.402Z,15.50
2022-09-14T03:43:21.777Z,15.41
2022-09-14T03:45:48.226Z,15.16
2022-09-14T03:48:15.846Z,15.36
2022-09-14T03:50:42.302Z,15.72
2022-09-14T03:53:08.890Z,15.60
2022-09-14T03:55:35.339Z,15.60
2022-09-14T03:58:01.833Z,15.67
2022-09-14T04:00:28.287Z,15.89
2022-09-14T04:02:54.923Z,15.94
2022-09-14T04:05:22.098Z,15.73
2022-09-14T04:07:48.633Z,16.03
2022-09-14T04:10:15.203Z,16.01
2022-09-14T04:12:41.656Z,15.72
2022-09-14T04:15:09.048Z,15.99
2022-09-14T04:17:35.592Z,15.97
2022-09-14T04:20:02.239Z,15.85
2022-09-14T04:22:28.707Z,16.08
2022-09-14T04:24:55.205Z,16.14
2022-09-14T04:27:21.662Z,15.96
2022-09-14T04:29:50.256Z,16.05
2022-09-14T04:32:16.923Z,16.09
2022-09-14T04:34:43.413Z,15.92
2022-09-14T04:37:09.953Z,16.11
2022-09-14T04:39:36.631Z,16.04
2022-09-14T04:42:03.098Z,16.01
2022-09-14T04:44:29.568Z,16.00
2022-09-14T04:46:56.050Z,16.15
2022-09-14T04:49:22.702Z,16.22
2022-09-14T04:51:49.277Z,16.39
2022-09-14T04:54:17.538Z,16.29
2022-09-14T04:56:44.459Z,16.32
2022-09-14T04:59:11.228Z,16.09
2022-09-14T05:01:40.325Z,16.31
2022-09-14T05:04:08.617Z,16.37
2022-09-14T05:06:36.542Z,16.32
2022-09-14T05:09:04.839Z,16.28
2022-09-14T05:11:33.356Z,16.34
2022-09-14T05:14:00.682Z,16.16
2022-09-14T05:16:29.793Z,16.14
2022-09-14T05:19:02.611Z,16.01
2022-09-14T05:21:30.491Z,16.17
2022-09-14T05:23:59.058Z,15.91
2022-09-14T05:26:26.906Z,15.94
2022-09-14T05:28:55.395Z,15.93
2022-09-14T05:31:23.920Z,16.00
2022-09-14T05:33:50.857Z,15.87
2022-09-14T05:36:17.334Z,16.14
2022-09-14T05:38:43.953Z,16.14
2022-09-14T05:41:12.309Z,16.14
2022-09-14T05:43:39.226Z,16.01
2022-09-14T05:46:12.139Z,15.98
2022-09-14T05:48:39.891Z,16.17
2022-09-14T05:51:09.733Z,16.07
2022-09-14T05:53:36.832Z,16.09
2022-09-14T05:56:04.101Z,16.23
2022-09-14T05:58:31.181Z,16.05
2022-09-14T06:00:57.826Z,16.00
2022-09-14T06:03:24.624Z,16.01
2022-09-14T06:05:54.701Z,16.13
2022-09-14T06:08:21.624Z,16.02
2022-09-14T06:10:48.471Z,16.01
2022-09-14T06:13:15.015Z,16.36
2022-09-14T06:15:41.657Z,16.45
2022-09-14T06:18:08.090Z,16.42
2022-09-14T06:20:34.541Z,16.54
2022-09-14T06:23:01.003Z,16.39
2022-09-14T06:25:28.233Z,16.40
2022-09-14T06:27:55.181Z,16.56
2022-09-14T06:30:21.747Z,16.47
2022-09-14T06:32:48.333Z,16.56
2022-09-14T06:35:15.150Z,16.88
2022-09-14T06:37:41.633Z,16.98
2022-09-14T06:40:08.581Z,16.87
2022-09-14T06:42:35.118Z,17.12
2022-09-14T06:45:01.590Z,17.16
2022-09-14T06:47:32.278Z,16.58
2022-09-14T06:49:59.089Z,16.90
2022-09-14T06:52:25.522Z,17.01
2022-09-14T06:54:51.998Z,17.08
2022-09-14T06:57:18.434Z,17.32
2022-09-14T06:59:44.885Z,17.38
2022-09-14T07:02:13.552Z,17.70
2022-09-14T07:04:40.069Z,17.92
2022-09-14T07:07:06.512Z,17.76
2022-09-14T07:09:32.969Z,17.55
2022-09-14T07:11:59.473Z,17.69
2022-09-14T07:14:29.253Z,17.70
2022-09-14T07:16:58.076Z,18.08
2022-09-14T07:19:24.496Z,18.09
2022-09-14T07:21:51.286Z,18.08
2022-09-14T07:24:17.746Z,17.74
2022-09-14T07:26:44.230Z,17.77
2022-09-14T07:29:17.088Z,18.13
2022-09-14T07:31:46.405Z,18.12
2022-09-14T07:34:13.421Z,18.07
2022-09-14T07:36:42.369Z,18.11
2022-09-14T07:39:11.506Z,18.23
2022-09-14T07:41:38.074Z,18.46
2022-09-14T07:44:07.347Z,18.57
2022-09-14T07:46:39.237Z,18.50
2022-09-14T07:49:06.857Z,18.85
2022-09-14T07:51:34.789Z,18.79
2022-09-14T07:54:01.912Z,18.50
2022-09-14T07:56:28.858Z,18.86
2022-09-14T07:59:17.189Z,18.96
2022-09-14T08:01:46.047Z,19.24
2022-09-14T08:04:12.800Z,19.22
2022-09-14T08:06:40.764Z,19.46
2022-09-14T08:09:08.889Z,19.69
2022-09-14T08:11:35.628Z,19.25
2022-09-14T08:14:05.217Z,19.28
2022-09-14T08:16:33.317Z,19.12
2022-09-14T08:19:03.124Z,19.08
2022-09-14T08:21:32.033Z,19.34
2022-09-14T08:23:59.334Z,19.26
2022-09-14T08:26:27.211Z,19.88
2022-09-14T08:28:54.702Z,19.94
2022-09-14T08:31:24.362Z,19.35
2022-09-14T08:33:53.294Z,19.97
2022-09-14T08:36:21.579Z,19.96
2022-09-14T08:38:48.178Z,20.14
2022-09-14T08:41:27.074Z,20.44
2022-09-14T08:43:53.896Z,20.65
2022-09-14T08:46:37.165Z,20.33
2022-09-14T08:49:07.317Z,20.34
2022-09-14T08:51:33.869Z,20.36
2022-09-14T08:54:00.350Z,20.49
2022-09-14T08:56:32.033Z,20.51
2022-09-14T08:59:09.030Z,20.43
2022-09-14T09:01:49.074Z,20.14
2022-09-14T09:04:25.193Z,19.65
2022-09-14T09:07:21.238Z,19.83
2022-09-14T09:09:52.806Z,19.36
2022-09-14T09:12:25.300Z,18.80
2022-09-14T09:14:58.362Z,19.86
2022-09-14T09:17:31.447Z,20.85
2022-09-14T09:20:05.824Z,19.90
2022-09-14T09:22:43.034Z,20.30
2022-09-14T09:25:24.519Z,20.31
2022-09-14T09:27:54.873Z,20.61
2022-09-14T09:30:21.322Z,19.87
2022-09-14T09:32:48.008Z,19.39
2022-09-14T09:35:21.265Z,18.59
2022-09-14T09:37:47.717Z,18.66
2022-09-14T09:40:20.169Z,19.80
2022-09-14T09:43:06.628Z,18.99
2022-09-14T09:45:51.605Z,18.53
2022-09-14T09:48:19.866Z,18.35
2022-09-14T09:51:05.361Z,18.28
2022-09-14T09:53:34.372Z,17.96
2022-09-14T09:56:01.177Z,18.24
2022-09-14T09:58:36.252Z,17.90
2022-09-14T10:01:23.359Z,18.39
2022-09-14T10:04:08.597Z,18.14
2022-09-14T10:06:43.878Z,17.87
2022-09-14T10:09:18.712Z,18.50
2022-09-14T10:11:46.987Z,18.48
2022-09-14T10:14:26.753Z,18.67
2022-09-14T10:16:53.469Z,18.91
2022-09-14T10:19:26.598Z,18.59
2022-09-14T10:22:30.003Z,18.74
2022-09-14T10:25:00.452Z,18.37
2022-09-14T10:27:39.826Z,18.46
2022-09-14T10:30:14.475Z,18.79
2022-09-14T10:32:43.983Z,18.93
2022-09-14T10:35:15.520Z,19.37
2022-09-14T10:37:51.175Z,19.33
2022-09-14T10:40:27.719Z,19.10
2022-09-14T10:43:13.076Z,18.91
2022-09-14T10:46:01.580Z,18.62
2022-09-14T10:48:28.689Z,18.80
2022-09-14T10:51:07.010Z,19.33
2022-09-14T10:54:11.888Z,18.81
2022-09-14T10:56:59.782Z,18.00
2022-09-14T10:59:43.266Z,17.38
2022-09-14T11:02:15.877Z,17.14
2022-09-14T11:05:00.793Z,17.31
2022-09-14T11:07:42.477Z,17.75
2022-09-14T11:10:36.915Z,17.52
2022-09-14T11:13:15.897Z,17.57
2022-09-14T11:15:56.910Z,17.27
2022-09-14T11:18:38.230Z,17.60
2022-09-14T11:21:26.177Z,17.16
2022-09-14T11:23:56.599Z,17.32
2022-09-14T11:26:24.800Z,18.13
2022-09-14T11:28:59.638Z,18.66
2022-09-14T11:31:33.290Z,18.40
2022-09-14T11:34:28.251Z,19.59
2022-09-14T11:37:07.119Z,19.91
2022-09-14T11:39:38.060Z,20.66
2022-09-14T11:42:13.225Z,19.81
2022-09-14T11:44:41.637Z,19.18
2022-09-14T11:47:13.106Z,19.31
2022-09-14T11:49:55.360Z,19.24
2022-09-14T11:52:24.509Z,20.32
2022-09-14T11:54:51.552Z,20.35
2022-09-14T11:57:20.487Z,20.53
2022-09-14T11:59:50.831Z,19.83
2022-09-14T12:02:44.916Z,20.61
2022-09-14T12:05:11.330Z,21.01
2022-09-14T12:07:45.409Z,20.89
2022-09-14T12:10:15.136Z,21.57
2022-09-14T12:12:46.697Z,20.79
2022-09-14T12:15:26.114Z,21.10
2022-09-14T12:18:08.112Z,19.77
2022-09-14T12:20:37.716Z,21.14
2022-09-14T12:23:16.226Z,19.93
2022-09-14T12:26:10.900Z,19.77
2022-09-14T12:28:37.658Z,19.46
2022-09-14T12:31:04.310Z,19.55
2022-09-14T12:33:36.847Z,19.64
2022-09-14T12:36:22.481Z,19.84
2022-09-14T12:38:57.981Z,19.49
2022-09-14T12:41:24.407Z,19.50
2022-09-14T12:43:51.187Z,19.46
2022-09-14T12:46:20.951Z,19.81
2022-09-14T12:48:51.808Z,20.10
2022-09-14T12:51:27.921Z,19.92
2022-09-14T12:54:00.475Z,20.10
2022-09-14T12:56:56.900Z,20.57
2022-09-14T12:59:44.152Z,19.62
2022-09-14T13:02:16.948Z,19.80
2022-09-14T13:04:45.709Z,20.26
2022-09-14T13:07:17.848Z,20.97
2022-09-14T13:09:52.923Z,20.95
2022-09-14T13:12:45.917Z,20.50
2022-09-14T13:15:36.866Z,19.98
2022-09-14T13:18:30.720Z,19.78
2022-09-14T13:20:59.522Z,19.82
2022-09-14T13:23:38.898Z,19.57
2022-09-14T13:26:11.330Z,19.95
2022-09-14T13:28:37.881Z,20.12
2022-09-14T13:31:05.128Z,20.12
2022-09-14T13:33:31.746Z,21.59
2022-09-14T13:36:00.673Z,21.40
2022-09-14T13:38:30.266Z,20.77
2022-09-14T13:41:11.069Z,21.47
2022-09-14T13:43:40.226Z,21.00
2022-09-14T13:46:08.235Z,20.38
2022-09-14T13:48:38.002Z,19.66
2022-09-14T13:51:05.302Z,19.96
2022-09-14T13:53:49.537Z,19.31
2022-09-14T13:56:33.237Z,19.23
2022-09-14T13:59:09.154Z,19.30
2022-09-14T14:01:52.208Z,19.97
2022-09-14T14:04:28.477Z,19.59
2022-09-14T14:07:07.156Z,19.42
2022-09-14T14:09:45.426Z,19.66
2022-09-14T14:12:21.506Z,19.16
2022-09-14T14:15:20.542Z,19.70
2022-09-14T14:17:47.374Z,20.02
2022-09-14T14:20:26.103Z,20.16
2022-09-14T14:23:00.751Z,19.88
2022-09-14T14:25:46.098Z,19.80
2022-09-14T14:28:27.497Z,20.25
2022-09-14T14:30:55.883Z,19.75
2022-09-14T14:33:22.734Z,19.98
2022-09-14T14:35:54.498Z,19.65
2022-09-14T14:38:23.377Z,19.35
2022-09-14T14:40:51.045Z,19.48
2022-09-14T14:43:25.831Z,19.40
2022-09-14T14:45:58.188Z,18.76
2022-09-14T14:48:25.012Z,18.60
2022-09-14T14:50:51.512Z,18.87
2022-09-14T14:53:17.977Z,18.49
2022-09-14T14:55:44.730Z,18.40
2022-09-14T14:58:16.289Z,17.74
2022-09-14T15:00:43.179Z,17.58
2022-09-14T15:03:09.832Z,17.53
2022-09-14T15:05:40.566Z,17.62
2022-09-14T15:08:07.046Z,17.65
2022-09-14T15:10:33.538Z,17.90
2022-09-14T15:13:00.261Z,17.68
2022-09-14T15:15:26.931Z,18.01
2022-09-14T15:17:53.824Z,18.58
2022-09-14T15:20:21.318Z,18.27
2022-09-14T15:22:48.200Z,18.24
2022-09-14T15:25:16.049Z,18.93
2022-09-14T15:27:42.814Z,18.85
2022-09-14T15:30:10.509Z,18.71
2022-09-14T15:32:36.963Z,18.30
2022-09-14T15:35:05.124Z,18.73
2022-09-14T15:37:31.818Z,18.80
2022-09-14T15:39:58.373Z,18.11
2022-09-14T15:42:25.681Z,18.55
2022-09-14T15:44:52.126Z,18.69
2022-09-14T15:47:18.659Z,18.78
2022-09-14T15:49:45.113Z,18.29
2022-09-14T15:52:12.090Z,18.40
2022-09-14T15:54:39.130Z,18.13
2022-09-14T15:57:09.974Z,18.16
2022-09-14T15:59:36.547Z,18.35
2022-09-14T16:02:03.307Z,18.32
2022-09-14T16:04:35.728Z,17.69
2022-09-14T16:07:02.266Z,18.31
2022-09-14T16:09:28.769Z,18.40
2022-09-14T16:11:58.410Z,18.77
2022-09-14T16:14:28.539Z,18.37
2022-09-14T16:16:58.769Z,18.35
2022-09-14T16:19:25.660Z,18.45
2022-09-14T16:21:53.868Z,18.13
2022-09-14T16:24:21.326Z,18.55
2022-09-14T16:26:47.913Z,18.22
2022-09-14T16:29:16.075Z,18.08
2022-09-14T16:31:44.205Z,18.24
2022-09-14T16:34:17.897Z,18.65
2022-09-14T16:36:44.658Z,18.49
2022-09-14T16:39:13.558Z,17.93
2022-09-14T16:41:41.832Z,18.07
2022-09-14T16:44:18.164Z,18.75
2022-09-14T16:46:45.066Z,18.25
2022-09-14T16:49:12.093Z,18.59
2022-09-14T16:51:38.881Z,18.24
2022-09-14T16:54:05.387Z,18.59
2022-09-14T16:56:34.443Z,18.56
2022-09-14T16:59:01.644Z,18.09
2022-09-14T17:01:33.804Z,17.98
2022-09-14T17:04:05.409Z,18.40
2022-09-14T17:06:32.815Z,17.97
2022-09-14T17:09:02.054Z,16.72
2022-09-14T17:11:30.173Z,16.50
2022-09-14T17:13:57.358Z,16.40
2022-09-14T17:16:25.201Z,16.48
2022-09-14T17:18:54.280Z,17.08
2022-09-14T17:21:23.272Z,16.42
2022-09-14T17:23:50.030Z,16.76
2022-09-14T17:26:18.644Z,16.56
2022-09-14T17:28:47.305Z,17.04
2022-09-14T17:31:16.189Z,17.49
2022-09-14T17:33:42.795Z,17.64
2022-09-14T17:36:09.390Z,17.57
2022-09-14T17:38:37.984Z,17.87
2022-09-14T17:41:14.262Z,17.84
2022-09-14T17:43:41.365Z,17.91
2022-09-14T17:46:12.187Z,17.60
2022-09-14T17:48:40.295Z,17.56
2022-09-14T17:51:08.598Z,17.54
2022-09-14T17:53:39.169Z,17.47
2022-09-14T17:56:08.062Z,17.52
2022-09-14T17:58:35.076Z,17.09
2022-09-14T18:01:06.180Z,17.33
2022-09-14T18:03:32.808Z,17.46
2022-09-14T18:05:59.329Z,17.31
2022-09-14T18:08:25.891Z,17.36
2022-09-14T18:10:52.381Z,17.35
2022-09-14T18:13:18.993Z,17.16
2022-09-14T18:15:45.450Z,17.12
2022-09-14T18:18:11.956Z,17.27
2022-09-14T18:20:38.662Z,17.24
2022-09-14T18:23:05.222Z,17.33
2022-09-14T18:25:31.708Z,17.13
2022-09-14T18:27:58.184Z,17.07
2022-09-14T18:30:24.598Z,17.27
2022-09-14T18:32:53.013Z,17.34
2022-09-14T18:35:19.457Z,17.22
2022-09-14T18:37:45.911Z,17.19
2022-09-14T18:40:12.399Z,17.19
2022-09-14T18:42:38.896Z,17.03
2022-09-14T18:45:06.758Z,16.99
2022-09-14T18:47:33.470Z,17.04
2022-09-14T18:50:01.017Z,17.19
2022-09-14T18:52:28.105Z,17.24
2022-09-14T18:54:54.562Z,16.94
2022-09-14T18:57:22.342Z,17.06
2022-09-14T18:59:53.845Z,16.99
2022-09-14T19:02:20.475Z,17.24
2022-09-14T19:04:47.402Z,16.92
2022-09-14T19:07:13.845Z,16.95
2022-09-14T19:09:40.284Z,17.03
2022-09-14T19:12:07.147Z,17.07
2022-09-14T19:14:33.675Z,16.99
2022-09-14T19:17:00.146Z,17.17
2022-09-14T19:19:52.653Z,17.06
2022-09-14T19:22:19.107Z,17.21
2022-09-14T19:24:45.542Z,17.11
2022-09-14T19:27:12.008Z,16.90
2022-09-14T19:29:39.471Z,17.08
2022-09-14T19:32:06.058Z,16.97
2022-09-14T19:34:32.516Z,17.04
2022-09-14T19:36:58.964Z,17.07
2022-09-14T19:39:25.922Z,17.15
2022-09-14T19:41:54.481Z,17.03
2022-09-14T19:44:23.163Z,16.88
2022-09-14T19:46:50.297Z,17.06
2022-09-14T19:49:19.708Z,16.97
2022-09-14T19:51:46.670Z,16.98
2022-09-14T19:54:13.272Z,17.21
2022-09-14T19:56:40.394Z,17.36
2022-09-14T19:59:07.628Z,17.29
2022-09-14T20:01:36.246Z,17.05
2022-09-14T20:04:04.002Z,17.02
2022-09-14T20:06:33.842Z,17.03
2022-09-14T20:09:11.889Z,17.24
2022-09-14T20:11:39.778Z,17.17
2022-09-14T20:14:08.676Z,17.06
2022-09-14T20:16:38.275Z,17.35
2022-09-14T20:19:08.704Z,17.07
2022-09-14T20:21:38.009Z,17.09
2022-09-14T20:24:21.981Z,17.33
2022-09-14T20:26:50.330Z,17.14
2022-09-14T20:29:18.283Z,16.97
2022-09-14T20:31:45.410Z,17.24
2022-09-14T20:34:12.769Z,17.32
2022-09-14T20:36:39.548Z,17.18
2022-09-14T20:39:06.262Z,17.03
2022-09-14T20:41:34.388Z,17.22
2022-09-14T20:44:01.482Z,17.07
2022-09-14T20:46:36.764Z,17.32
2022-09-14T20:49:05.690Z,17.43
2022-09-14T20:51:32.353Z,17.50
2022-09-14T20:53:58.959Z,17.05
2022-09-14T20:56:27.927Z,16.94
2022-09-14T20:58:56.686Z,17.11
2022-09-14T21:01:26.987Z,17.17
2022-09-14T21:03:54.437Z,17.23
2022-09-14T21:06:25.575Z,17.05
2022-09-14T21:08:52.646Z,17.17
2022-09-14T21:11:21.876Z,17.13
2022-09-14T21:13:49.302Z,17.25
2022-09-14T21:16:23.754Z,17.48
2022-09-14T21:18:59.650Z,17.36
2022-09-14T21:21:27.211Z,16.99
2022-09-14T21:23:55.856Z,17.41
2022-09-14T21:26:22.637Z,17.26
2022-09-14T21:28:50.015Z,17.53
2022-09-14T21:31:19.866Z,17.42
2022-09-14T21:33:49.433Z,17.26
2022-09-14T21:36:21.747Z,17.53
2022-09-14T21:38:50.134Z,17.23
2022-09-14T21:41:17.433Z,17.37
2022-09-14T21:43:44.922Z,17.20
2022-09-14T21:46:12.393Z,17.08
2022-09-14T21:48:38.942Z,17.23
2022-09-14T21:51:18.624Z,16.91
2022-09-14T21:53:58.070Z,17.09
2022-09-14T21:56:26.907Z,17.15
2022-09-14T21:58:55.554Z,16.75
2022-09-14T22:01:23.285Z,17.11
2022-09-14T22:03:53.685Z,17.18
2022-09-14T22:06:22.267Z,17.08
2022-09-14T22:08:49.252Z,16.84
2022-09-14T22:11:24.694Z,16.68
2022-09-14T22:13:56.422Z,16.61
2022-09-14T22:16:24.115Z,16.23
2022-09-14T22:18:52.907Z,16.31
2022-09-14T22:21:19.878Z,16.38
2022-09-14T22:23:55.291Z,16.26
2022-09-14T22:26:23.387Z,16.26
2022-09-14T22:28:51.787Z,16.23
2022-09-14T22:31:23.545Z,16.84
2022-09-14T22:33:50.917Z,17.02
2022-09-14T22:36:17.810Z,16.53
2022-09-14T22:38:44.903Z,16.73
2022-09-14T22:41:14.519Z,17.15
2022-09-14T22:43:41.454Z,17.08
2022-09-14T22:46:08.554Z,17.17
2022-09-14T22:48:35.814Z,17.35
2022-09-14T22:51:02.731Z,17.21
2022-09-14T22:53:29.926Z,16.81
2022-09-14T22:55:56.729Z,16.90
2022-09-14T22:58:25.897Z,17.19
2022-09-14T23:00:53.159Z,17.12
2022-09-14T23:03:20.166Z,16.80
2022-09-14T23:05:55.594Z,17.02
2022-09-14T23:08:51.781Z,16.84
2022-09-14T23:11:18.269Z,17.10
2022-09-14T23:13:45.539Z,16.78
2022-09-14T23:16:18.148Z,16.78
2022-09-14T23:18:45.323Z,17.03
2022-09-14T23:21:24.856Z,16.97
2022-09-14T23:23:57.700Z,17.04
2022-09-14T23:26:25.123Z,16.99
2022-09-14T23:28:57.245Z,17.06
2022-09-14T23:31:24.326Z,17.28
2022-09-14T23:33:55.835Z,16.95
2022-09-14T23:36:23.198Z,17.19
2022-09-14T23:38:50.214Z,17.01
2022-09-14T23:41:17.730Z,17.10
2022-09-14T23:43:44.514Z,17.21
2022-09-14T23:46:11.304Z,17.18
2022-09-14T23:48:38.212Z,17.04
2022-09-14T23:51:07.596Z,16.91
2022-09-14T23:53:35.064Z,16.82
2022-09-14T23:56:02.751Z,17.09
2022-09-14T23:58:29.231Z,16.94
